createdAt,value
2022-08-05T00:02:39.824Z,48.84
2022-08-05T00:06:04.960Z,48.71
2022-08-05T00:08:36.790Z,48.96
2022-08-05T00:11:24.019Z,49.61
2022-08-05T00:14:11.949Z,50.11
2022-08-05T00:16:52.743Z,50.43
2022-08-05T00:19:22.655Z,49.57
2022-08-05T00:22:11.075Z,49.65
2022-08-05T00:24:42.188Z,49.39
2022-08-05T00:27:36.235Z,50.03
2022-08-05T00:30:05.589Z,50.04
2022-08-05T00:32:39.338Z,50.14
2022-08-05T00:35:20.331Z,50.32
2022-08-05T00:37:52.561Z,50.87
2022-08-05T00:40:53.308Z,51.30
2022-08-05T00:43:22.704Z,51.51
2022-08-05T00:46:05.704Z,51.94
2022-08-05T00:48:34.227Z,51.60
2022-08-05T00:51:51.965Z,52.56
2022-08-05T00:54:20.280Z,52.68
2022-08-05T00:56:51.699Z,52.73
2022-08-05T00:59:22.041Z,53.04
2022-08-05T01:01:50.067Z,52.70
2022-08-05T01:04:19.892Z,54.30
2022-08-05T01:06:49.096Z,53.87
2022-08-05T01:09:20.487Z,54.18
2022-08-05T01:11:50.464Z,54.29
2022-08-05T01:14:28.718Z,53.65
2022-08-05T01:17:04.666Z,54.23
2022-08-05T01:20:01.204Z,55.38
2022-08-05T01:22:38.688Z,55.88
2022-08-05T01:25:40.530Z,54.64
2022-08-05T01:28:25.454Z,55.78
2022-08-05T01:30:57.977Z,55.58
2022-08-05T01:33:35.195Z,54.38
2022-08-05T01:36:12.920Z,53.17
2022-08-05T01:38:46.162Z,53.66
2022-08-05T01:41:21.716Z,55.58
2022-08-05T01:43:53.594Z,56.35
2022-08-05T01:46:42.487Z,57.43
2022-08-05T01:49:22.932Z,57.53
2022-08-05T01:51:56.808Z,56.99
2022-08-05T01:54:30.374Z,57.46
2022-08-05T01:58:11.255Z,58.14
2022-08-05T01:59:52.539Z,57.38
2022-08-05T02:02:28.460Z,55.57
2022-08-05T02:05:01.766Z,55.10
2022-08-05T02:07:32.114Z,54.90
2022-08-05T02:10:01.994Z,55.60
2022-08-05T02:12:38.215Z,55.91
2022-08-05T02:15:12.981Z,56.15
2022-08-05T02:18:30.820Z,56.66
2022-08-05T02:20:46.985Z,56.92
2022-08-05T02:23:17.144Z,57.20
2022-08-05T02:25:49.563Z,57.63
2022-08-05T02:28:29.348Z,57.28
2022-08-05T02:31:07.488Z,57.13
2022-08-05T02:33:39.314Z,57.97
2022-08-05T02:36:13.550Z,58.48
2022-08-05T02:38:53.174Z,58.69
2022-08-05T02:41:28.986Z,58.98
2022-08-05T02:44:13.778Z,59.29
2022-08-05T02:46:58.804Z,59.13
2022-08-05T02:49:36.559Z,59.52
2022-08-05T02:52:09.128Z,59.84
2022-08-05T02:54:42.171Z,60.06
2022-08-05T02:58:11.265Z,60.05
2022-08-05T03:00:01.332Z,61.01
2022-08-05T03:02:37.817Z,60.55
2022-08-05T03:05:08.169Z,61.02
2022-08-05T03:08:00.979Z,61.38
2022-08-05T03:10:28.835Z,62.01
2022-08-05T03:15:24.331Z,62.60
2022-08-05T03:17:56.170Z,63.11
2022-08-05T03:20:26.321Z,63.67
2022-08-05T03:22:57.195Z,63.51
2022-08-05T03:25:32.657Z,62.89
2022-08-05T03:28:03.695Z,63.74
2022-08-05T03:30:34.135Z,63.46
2022-08-05T03:33:06.028Z,63.43
2022-08-05T03:35:41.122Z,64.04
2022-08-05T03:38:12.368Z,64.90
2022-08-05T03:40:45.300Z,65.16
2022-08-05T03:44:08.434Z,65.24
2022-08-05T03:46:05.192Z,65.45
2022-08-05T03:48:37.798Z,66.33
2022-08-05T03:52:38.146Z,66.73
2022-08-05T03:55:07.137Z,66.90
2022-08-05T03:56:58.784Z,67.86
2022-08-05T03:59:47.080Z,68.64
2022-08-05T04:02:38.666Z,68.12
2022-08-05T04:05:15.853Z,67.52
2022-08-05T04:07:58.161Z,68.00
2022-08-05T04:10:28.179Z,68.73
2022-08-05T04:12:59.238Z,68.71
2022-08-05T04:15:32.806Z,68.28
2022-08-05T04:18:02.986Z,68.74
2022-08-05T04:20:32.221Z,68.12
2022-08-05T04:23:01.618Z,67.64
2022-08-05T04:25:56.789Z,68.28
2022-08-05T04:28:17.546Z,68.68
2022-08-05T04:30:45.737Z,68.83
2022-08-05T04:33:13.643Z,68.75
2022-08-05T04:36:16.457Z,68.29
2022-08-05T04:38:39.724Z,68.89
2022-08-05T04:41:09.589Z,69.12
2022-08-05T04:43:40.579Z,68.07
2022-08-05T04:46:28.423Z,67.93
2022-08-05T04:48:58.715Z,69.37
2022-08-05T04:51:30.589Z,69.56
2022-08-05T04:53:58.650Z,68.69
2022-08-05T04:56:34.929Z,67.40
2022-08-05T04:59:21.854Z,68.85
2022-08-05T05:02:35.593Z,69.73
2022-08-05T05:04:47.581Z,70.27
2022-08-05T05:07:18.146Z,69.89
2022-08-05T05:09:46.665Z,71.49
2022-08-05T05:12:14.960Z,71.26
2022-08-05T05:14:50.650Z,71.25
2022-08-05T05:17:23.701Z,71.19
2022-08-05T05:19:56.422Z,71.61
2022-08-05T05:22:26.986Z,71.38
2022-08-05T05:24:58.389Z,71.05
2022-08-05T05:27:45.797Z,70.92
2022-08-05T05:30:30.780Z,71.14
2022-08-05T05:33:08.988Z,71.25
2022-08-05T05:35:45.107Z,71.91
2022-08-05T05:38:14.681Z,71.98
2022-08-05T05:40:51.578Z,71.35
2022-08-05T05:43:27.471Z,69.98
2022-08-05T05:46:15.677Z,70.48
2022-08-05T05:48:46.047Z,70.85
2022-08-05T05:51:49.675Z,70.86
2022-08-05T05:54:20.083Z,71.35
2022-08-05T05:56:48.505Z,71.36
2022-08-05T05:59:18.196Z,72.10
2022-08-05T06:01:57.618Z,71.90
2022-08-05T06:04:28.440Z,70.99
2022-08-05T06:06:56.906Z,71.43
2022-08-05T06:09:59.935Z,70.79
2022-08-05T06:12:20.618Z,70.13
2022-08-05T06:14:48.463Z,69.90
2022-08-05T06:17:24.671Z,69.71
2022-08-05T06:19:59.867Z,69.46
2022-08-05T06:22:30.029Z,69.09
2022-08-05T06:24:59.912Z,68.47
2022-08-05T06:28:10.545Z,68.24
2022-08-05T06:30:20.228Z,68.60
2022-08-05T06:32:50.700Z,68.89
2022-08-05T06:36:03.790Z,69.30
2022-08-05T06:38:11.270Z,69.96
2022-08-05T06:40:46.160Z,70.18
2022-08-05T06:43:57.903Z,69.54
2022-08-05T06:46:07.183Z,70.32
2022-08-05T06:48:55.618Z,69.62
2022-08-05T06:51:30.767Z,69.05
2022-08-05T06:54:02.086Z,68.83
2022-08-05T06:56:34.629Z,68.37
2022-08-05T06:59:03.168Z,68.15
2022-08-05T07:01:33.619Z,67.74
2022-08-05T07:04:03.144Z,67.80
2022-08-05T07:06:32.194Z,67.68
2022-08-05T07:09:03.773Z,68.05
2022-08-05T07:11:36.790Z,67.04
2022-08-05T07:14:29.455Z,66.77
2022-08-05T07:17:58.676Z,67.63
2022-08-05T07:22:39.241Z,67.28
2022-08-05T07:25:23.028Z,66.51
2022-08-05T07:28:03.939Z,66.84
2022-08-05T07:30:38.355Z,67.33
2022-08-05T07:33:15.484Z,67.89
2022-08-05T07:36:04.061Z,67.34
2022-08-05T07:38:42.602Z,67.29
2022-08-05T07:42:13.898Z,67.20
2022-08-05T07:44:18.583Z,66.54
2022-08-05T07:46:48.545Z,65.07
2022-08-05T07:49:18.257Z,63.90
2022-08-05T07:51:53.817Z,63.72
2022-08-05T07:54:31.111Z,63.86
2022-08-05T07:57:41.711Z,63.02
2022-08-05T07:59:51.781Z,63.31
2022-08-05T08:02:26.617Z,63.66
2022-08-05T08:04:59.153Z,64.38
2022-08-05T08:07:28.490Z,64.75
2022-08-05T08:09:56.967Z,65.25
2022-08-05T08:12:33.376Z,65.28
2022-08-05T08:15:09.703Z,64.65
2022-08-05T08:17:46.187Z,65.33
2022-08-05T08:20:44.605Z,64.99
2022-08-05T08:23:11.708Z,65.00
2022-08-05T08:25:59.774Z,64.33
2022-08-05T08:28:35.746Z,64.29
2022-08-05T08:31:07.373Z,63.24
2022-08-05T08:33:38.349Z,63.09
2022-08-05T08:38:57.672Z,63.60
2022-08-05T08:41:51.764Z,64.04
2022-08-05T08:45:22.360Z,63.17
2022-08-05T08:47:47.472Z,63.60
2022-08-05T08:50:22.993Z,63.45
2022-08-05T08:52:52.972Z,62.91
2022-08-05T08:56:02.541Z,62.87
2022-08-05T08:58:16.019Z,64.27
2022-08-05T09:00:44.514Z,64.55
2022-08-05T09:03:19.212Z,66.11
2022-08-05T09:06:08.935Z,69.67
2022-08-05T09:08:40.644Z,67.08
2022-08-05T09:11:12.051Z,66.43
2022-08-05T09:14:09.345Z,67.46
2022-08-05T09:16:31.276Z,69.33
2022-08-05T09:19:00.493Z,68.55
2022-08-05T09:22:21.746Z,68.23
2022-08-05T09:24:17.809Z,69.53
2022-08-05T09:26:51.881Z,69.18
2022-08-05T09:29:47.513Z,69.30
2022-08-05T09:32:40.772Z,70.83
2022-08-05T09:35:11.982Z,69.97
2022-08-05T09:38:12.958Z,68.33
2022-08-05T09:40:53.587Z,69.33
2022-08-05T09:43:40.588Z,69.05
2022-08-05T09:46:27.587Z,66.53
2022-08-05T09:49:08.291Z,66.65
2022-08-05T09:51:49.670Z,67.77
2022-08-05T09:54:28.893Z,67.27
2022-08-05T09:57:01.314Z,67.66
2022-08-05T09:59:35.199Z,69.13
2022-08-05T10:02:05.949Z,69.19
2022-08-05T10:04:38.612Z,70.00
2022-08-05T10:07:19.865Z,70.47
2022-08-05T10:10:15.285Z,71.39
2022-08-05T10:12:50.069Z,73.10
2022-08-05T10:15:29.593Z,74.15
2022-08-05T10:18:16.961Z,76.03
2022-08-05T10:20:48.697Z,76.76
2022-08-05T10:23:22.128Z,79.30
2022-08-05T10:26:14.165Z,78.76
2022-08-05T10:28:44.055Z,77.20
2022-08-05T10:32:48.605Z,77.09
2022-08-05T10:34:01.556Z,76.19
2022-08-05T10:36:30.871Z,76.36
2022-08-05T10:39:10.550Z,76.85
2022-08-05T10:41:48.697Z,74.62
2022-08-05T10:44:20.289Z,76.44
2022-08-05T10:46:54.233Z,73.74
2022-08-05T10:49:27.001Z,74.26
2022-08-05T10:52:10.555Z,73.16
2022-08-05T10:55:07.057Z,79.17
2022-08-05T10:57:35.735Z,96.40
2022-08-05T11:00:18.640Z,98.31
2022-08-05T11:03:24.625Z,98.42
2022-08-05T11:06:15.362Z,100.00
2022-08-05T11:09:32.463Z,100.00
2022-08-05T11:12:50.523Z,100.00
2022-08-05T11:16:00.155Z,100.00
2022-08-05T11:18:27.488Z,100.00
2022-08-05T11:20:58.936Z,94.67
2022-08-05T11:24:03.813Z,82.17
2022-08-05T11:26:31.989Z,67.58
2022-08-05T11:29:12.567Z,60.94
2022-08-05T11:31:58.661Z,59.39
2022-08-05T11:34:40.146Z,56.57
2022-08-05T11:38:37.305Z,52.89
2022-08-05T11:41:13.904Z,55.66
2022-08-05T11:44:05.812Z,58.22
2022-08-05T11:46:58.422Z,60.74
2022-08-05T11:49:34.085Z,59.52
2022-08-05T11:52:08.759Z,54.60
2022-08-05T11:54:41.239Z,50.63
2022-08-05T11:57:25.679Z,51.90
2022-08-05T11:59:55.771Z,48.45
2022-08-05T12:02:30.272Z,47.79
2022-08-05T12:05:01.482Z,51.73
2022-08-05T12:08:07.389Z,48.09
2022-08-05T12:10:42.950Z,51.51
2022-08-05T12:13:16.805Z,56.06
2022-08-05T12:15:49.990Z,51.77
2022-08-05T12:18:33.043Z,50.62
2022-08-05T12:21:13.473Z,54.22
2022-08-05T12:23:53.377Z,53.10
2022-08-05T12:26:21.782Z,50.11
2022-08-05T12:28:52.033Z,46.94
2022-08-05T12:31:28.039Z,45.46
2022-08-05T12:34:02.038Z,46.35
2022-08-05T12:36:33.466Z,49.70
2022-08-05T12:39:01.900Z,50.55
2022-08-05T12:41:35.487Z,50.26
2022-08-05T12:44:14.512Z,51.46
2022-08-05T12:46:57.511Z,50.72
2022-08-05T12:49:27.628Z,50.35
2022-08-05T12:52:25.233Z,49.76
2022-08-05T12:54:57.636Z,49.40
2022-08-05T12:57:27.165Z,50.23
2022-08-05T13:02:04.061Z,50.45
2022-08-05T13:03:18.541Z,52.49
2022-08-05T13:05:48.304Z,52.17
2022-08-05T13:11:04.127Z,53.97
2022-08-05T13:14:05.790Z,54.29
2022-08-05T13:16:25.281Z,53.93
2022-08-05T13:18:58.873Z,53.34
2022-08-05T13:21:27.717Z,53.09
2022-08-05T13:23:58.659Z,50.93
2022-08-05T13:26:30.051Z,50.41
2022-08-05T13:28:59.185Z,47.42
2022-08-05T13:32:03.079Z,47.04
2022-08-05T13:34:25.161Z,49.73
2022-08-05T13:36:54.406Z,50.50
2022-08-05T13:40:12.828Z,50.66
2022-08-05T13:42:14.808Z,50.08
2022-08-05T13:44:45.717Z,49.76
2022-08-05T13:47:35.960Z,50.00
2022-08-05T13:50:04.125Z,49.20
2022-08-05T13:52:35.359Z,52.02
2022-08-05T13:55:07.502Z,51.49
2022-08-05T13:57:50.921Z,52.80
2022-08-05T14:00:27.532Z,53.45
2022-08-05T14:02:57.066Z,53.63
2022-08-05T14:05:48.287Z,53.56
2022-08-05T14:08:20.980Z,53.71
2022-08-05T14:10:59.745Z,53.63
2022-08-05T14:13:48.265Z,53.64
2022-08-05T14:16:16.999Z,54.11
2022-08-05T14:18:45.315Z,53.11
2022-08-05T14:22:07.913Z,52.96
2022-08-05T14:24:01.458Z,52.39
2022-08-05T14:26:38.368Z,52.96
2022-08-05T14:29:15.909Z,52.43
2022-08-05T14:32:03.703Z,53.04
2022-08-05T14:34:35.190Z,53.22
2022-08-05T14:37:04.336Z,52.97
2022-08-05T14:39:50.111Z,54.52
2022-08-05T14:42:22.275Z,54.95
2022-08-05T14:44:50.270Z,55.38
2022-08-05T14:47:23.984Z,57.44
2022-08-05T14:50:18.267Z,58.51
2022-08-05T14:52:58.716Z,59.80
2022-08-05T14:55:38.654Z,58.27
2022-08-05T14:58:11.358Z,59.17
2022-08-05T15:00:59.334Z,60.57
2022-08-05T15:03:33.958Z,60.80
2022-08-05T15:06:15.258Z,61.29
2022-08-05T15:09:01.088Z,61.77
2022-08-05T15:11:51.731Z,61.96
2022-08-05T15:14:35.017Z,62.29
2022-08-05T15:17:45.058Z,62.71
2022-08-05T15:19:58.478Z,63.86
2022-08-05T15:22:26.809Z,64.37
2022-08-05T15:24:55.699Z,64.84
2022-08-05T15:27:25.682Z,65.56
2022-08-05T15:29:56.786Z,66.12
2022-08-05T15:32:27.449Z,66.65
2022-08-05T15:34:57.027Z,67.35
2022-08-05T15:38:34.668Z,67.44
2022-08-05T15:40:59.540Z,67.65
2022-08-05T15:43:11.006Z,68.46
2022-08-05T15:45:45.966Z,68.27
2022-08-05T15:48:15.000Z,68.28
2022-08-05T15:50:45.622Z,68.19
2022-08-05T15:53:13.746Z,69.06
2022-08-05T15:56:03.110Z,70.00
2022-08-05T15:58:29.755Z,70.40
2022-08-05T16:01:16.086Z,70.51
2022-08-05T16:03:48.165Z,71.10
2022-08-05T16:06:19.948Z,71.79
2022-08-05T16:08:51.154Z,73.86
2022-08-05T16:11:40.023Z,75.55
2022-08-05T16:14:10.132Z,76.58
2022-08-05T16:16:47.607Z,77.70
2022-08-05T16:19:25.498Z,76.71
2022-08-05T16:22:04.300Z,76.66
2022-08-05T16:24:41.205Z,77.40
2022-08-05T16:27:16.359Z,76.95
2022-08-05T16:29:50.816Z,77.19
2022-08-05T16:32:23.305Z,76.68
2022-08-05T16:34:58.712Z,76.95
2022-08-05T16:38:16.264Z,77.11
2022-08-05T16:40:26.758Z,76.85
2022-08-05T16:42:57.531Z,76.84
2022-08-05T16:46:05.964Z,78.04
2022-08-05T16:48:25.927Z,79.15
2022-08-05T16:51:01.611Z,78.89
2022-08-05T16:53:32.044Z,79.01
2022-08-05T16:56:01.228Z,79.45
2022-08-05T16:58:30.189Z,80.97
2022-08-05T17:00:58.119Z,80.70
2022-08-05T17:03:28.586Z,80.99
2022-08-05T17:06:00.262Z,80.94
2022-08-05T17:08:36.748Z,80.35
2022-08-05T17:11:17.289Z,81.83
2022-08-05T17:13:45.653Z,82.35
2022-08-05T17:16:33.509Z,82.88
2022-08-05T17:19:03.637Z,82.86
2022-08-05T17:21:37.094Z,83.10
2022-08-05T17:24:18.385Z,82.29
2022-08-05T17:26:55.565Z,83.35
2022-08-05T17:29:33.646Z,83.53
2022-08-05T17:32:16.737Z,85.19
2022-08-05T17:34:48.359Z,85.09
2022-08-05T17:37:40.443Z,84.13
2022-08-05T17:40:12.440Z,85.67
2022-08-05T17:42:46.470Z,86.05
2022-08-05T17:45:22.433Z,86.39
2022-08-05T17:47:55.017Z,85.90
2022-08-05T17:50:28.910Z,86.07
2022-08-05T17:53:02.525Z,85.76
2022-08-05T17:55:37.686Z,84.93
2022-08-05T17:58:11.146Z,83.73
2022-08-05T18:00:45.425Z,83.86
2022-08-05T18:03:55.973Z,85.58
2022-08-05T18:06:11.172Z,88.26
2022-08-05T18:08:44.510Z,87.67
2022-08-05T18:11:23.831Z,87.65
2022-08-05T18:13:54.803Z,88.73
2022-08-05T18:16:23.379Z,87.50
2022-08-05T18:18:51.818Z,86.23
2022-08-05T18:21:26.121Z,87.13
2022-08-05T18:23:55.980Z,87.48
2022-08-05T18:26:29.544Z,87.45
2022-08-05T18:29:00.482Z,86.96
2022-08-05T18:31:33.841Z,87.09
2022-08-05T18:34:06.162Z,87.37
2022-08-05T18:36:36.609Z,87.45
2022-08-05T18:39:09.759Z,86.96
2022-08-05T18:42:01.209Z,88.33
2022-08-05T18:44:35.493Z,87.80
2022-08-05T18:47:22.746Z,86.61
2022-08-05T18:50:12.214Z,85.53
2022-08-05T18:52:50.813Z,85.47
2022-08-05T18:55:21.664Z,83.90
2022-08-05T18:57:52.984Z,85.26
2022-08-05T19:00:26.993Z,84.58
2022-08-05T19:02:57.117Z,85.49
2022-08-05T19:06:12.020Z,85.66
2022-08-05T19:08:15.760Z,85.39
2022-08-05T19:10:48.407Z,84.97
2022-08-05T19:13:16.569Z,85.43
2022-08-05T19:15:58.828Z,84.10
2022-08-05T19:18:28.610Z,83.57
2022-08-05T19:21:00.144Z,81.86
2022-08-05T19:24:07.991Z,78.90
2022-08-05T19:26:19.626Z,76.96
2022-08-05T19:28:47.461Z,76.98
2022-08-05T19:31:18.058Z,75.67
2022-08-05T19:33:48.446Z,74.98
2022-08-05T19:36:25.230Z,74.17
2022-08-05T19:38:59.094Z,74.08
2022-08-05T19:42:05.621Z,74.17
2022-08-05T19:44:17.403Z,73.67
2022-08-05T19:46:46.710Z,74.11
2022-08-05T19:49:16.916Z,73.43
2022-08-05T19:52:05.364Z,72.70
2022-08-05T19:54:36.984Z,72.08
2022-08-05T19:57:09.569Z,71.24
2022-08-05T19:59:55.177Z,71.41
2022-08-05T20:02:28.137Z,70.41
2022-08-05T20:04:58.338Z,70.77
2022-08-05T20:07:48.358Z,70.36
2022-08-05T20:10:19.376Z,70.04
2022-08-05T20:12:50.396Z,69.57
2022-08-05T20:15:48.927Z,69.05
2022-08-05T20:18:10.017Z,68.84
2022-08-05T20:20:56.901Z,69.33
2022-08-05T20:23:39.960Z,69.74
2022-08-05T20:26:17.253Z,69.67
2022-08-05T20:28:47.904Z,69.23
2022-08-05T20:31:16.557Z,69.72
2022-08-05T20:33:45.337Z,70.22
2022-08-05T20:36:14.255Z,70.62
2022-08-05T20:38:54.114Z,70.22
2022-08-05T20:41:43.296Z,69.42
2022-08-05T20:44:18.371Z,70.27
2022-08-05T20:46:57.821Z,70.10
2022-08-05T20:49:26.333Z,70.98
2022-08-05T20:51:55.119Z,70.92
2022-08-05T20:54:22.976Z,72.18
2022-08-05T20:56:54.185Z,72.34
2022-08-05T20:59:26.673Z,72.70
2022-08-05T21:02:10.205Z,73.41
2022-08-05T21:04:39.048Z,74.43
2022-08-05T21:07:08.503Z,74.92
2022-08-05T21:09:37.201Z,74.57
2022-08-05T21:12:20.045Z,73.71
2022-08-05T21:14:48.263Z,73.80
2022-08-05T21:17:18.043Z,73.93
2022-08-05T21:19:50.581Z,74.16
2022-08-05T21:22:21.927Z,73.97
2022-08-05T21:24:52.528Z,74.45
2022-08-05T21:27:24.724Z,76.41
2022-08-05T21:29:55.820Z,77.31
2022-08-05T21:32:24.613Z,77.84
2022-08-05T21:34:55.980Z,78.05
2022-08-05T21:37:41.029Z,78.24
2022-08-05T21:40:13.832Z,79.41
2022-08-05T21:42:44.667Z,80.55
2022-08-05T21:45:24.085Z,81.64
2022-08-05T21:47:56.699Z,81.49
2022-08-05T21:50:25.909Z,81.66
2022-08-05T21:52:58.839Z,82.16
2022-08-05T21:55:42.994Z,82.62
2022-08-05T21:58:16.329Z,82.08
2022-08-05T22:00:51.335Z,81.85
2022-08-05T22:03:20.589Z,81.00
2022-08-05T22:06:09.564Z,81.75
2022-08-05T22:08:37.384Z,82.32
2022-08-05T22:11:11.922Z,83.13
2022-08-05T22:14:19.621Z,83.61
2022-08-05T22:16:42.064Z,83.14
2022-08-05T22:20:03.522Z,83.10
2022-08-05T22:22:07.514Z,83.42
2022-08-05T22:24:55.758Z,83.33
2022-08-05T22:28:04.920Z,84.09
2022-08-05T22:30:32.178Z,84.81
2022-08-05T22:33:03.574Z,85.72
2022-08-05T22:35:48.143Z,86.41
2022-08-05T22:38:19.679Z,85.54
2022-08-05T22:40:50.023Z,85.96
2022-08-05T22:43:36.194Z,86.31
2022-08-05T22:46:13.380Z,86.40
2022-08-05T22:48:43.162Z,86.63
2022-08-05T22:51:20.305Z,86.96
2022-08-05T22:53:51.996Z,86.94
2022-08-05T22:56:30.581Z,87.08
2022-08-05T22:59:00.111Z,87.40
2022-08-05T23:01:50.954Z,86.34
2022-08-05T23:04:21.686Z,85.94
2022-08-05T23:06:49.617Z,85.36
2022-08-05T23:09:27.425Z,85.03
2022-08-05T23:12:08.898Z,85.66
2022-08-05T23:14:36.750Z,85.44
2022-08-05T23:17:34.315Z,85.57
2022-08-05T23:20:16.635Z,86.33
2022-08-05T23:22:48.373Z,85.63
2022-08-05T23:25:51.589Z,84.40
2022-08-05T23:28:11.094Z,83.57
2022-08-05T23:30:43.902Z,83.91
2022-08-05T23:34:02.655Z,83.71
2022-08-05T23:36:15.654Z,83.40
2022-08-05T23:38:45.660Z,82.88
2022-08-05T23:41:14.247Z,82.96
2022-08-05T23:44:06.017Z,82.56
2022-08-05T23:46:30.367Z,83.04
2022-08-05T23:49:16.217Z,82.77
2022-08-05T23:52:03.477Z,81.87
2022-08-05T23:54:38.132Z,81.09
2022-08-05T23:57:08.115Z,81.65
